Time;durP1;ratioP1;P1;durP2;ratioP2;P2;SDS_P1;SDS_P2;PMS_P1;PMS_P2;Temp;Humidity;BMP_temperature;BMP_pressure;BME280_temperature;BME280_humidity;BME280_pressure;Samples;Min_cycle;Max_cycle;Signal;HPM_P1;HPM_P2
2024/01/31 11:57:26;;;;;;;9.67;6.27;;;7.70;99.90;;;;;;8397003;27;20448;-64
2024/01/31 12:01:27;;;;;;;7.40;5.73;;;7.90;99.90;;;;;;8348629;28;20217;-65
2024/01/31 12:05:28;;;;;;;7.90;5.20;;;7.80;99.90;;;;;;8336889;28;20224;-65
2024/01/31 12:09:29;;;;;;;6.63;4.53;;;7.80;99.90;;;;;;8337657;28;20193;-66
2024/01/31 12:13:30;;;;;;;7.03;4.80;;;7.60;99.90;;;;;;8336064;28;20182;-65
2024/01/31 12:17:31;;;;;;;4.83;3.97;;;7.70;99.90;;;;;;8336577;28;20194;-64
2024/01/31 12:21:42;;;;;;;4.70;4.10;;;7.70;99.90;;;;;;8337794;28;20193;-65
2024/01/31 12:25:43;;;;;;;6.17;4.53;;;7.80;99.90;;;;;;8338637;28;20194;-65
2024/01/31 12:29:46;;;;;;;4.87;4.17;;;8.00;99.90;;;;;;8332934;28;20197;-65
2024/01/31 12:33:47;;;;;;;5.03;3.77;;;8.10;99.90;;;;;;8335466;28;20210;-63
2024/01/31 12:37:47;;;;;;;4.90;4.20;;;7.80;99.90;;;;;;8328815;28;20195;-64
2024/01/31 12:41:48;;;;;;;5.53;3.80;;;7.90;99.90;;;;;;8322807;28;20192;-64
2024/01/31 12:45:49;;;;;;;3.30;2.40;;;7.70;99.90;;;;;;8327337;28;20282;-63
2024/01/31 12:49:50;;;;;;;3.53;2.27;;;7.80;99.90;;;;;;8330499;28;20205;-64
2024/01/31 12:53:51;;;;;;;5.10;2.27;;;7.80;99.90;;;;;;8326856;28;20617;-65
2024/01/31 12:57:52;;;;;;;2.33;1.90;;;7.70;99.90;;;;;;8328665;28;20175;-63
2024/01/31 13:01:53;;;;;;;2.07;1.57;;;7.70;99.90;;;;;;8328587;28;20275;-63
2024/01/31 13:05:53;;;;;;;1.80;1.67;;;7.70;99.90;;;;;;8324445;28;20190;-63
2024/01/31 13:09:54;;;;;;;2.20;1.63;;;7.70;99.90;;;;;;8306440;28;20187;-64
2024/01/31 13:13:55;;;;;;;1.90;1.30;;;7.80;99.90;;;;;;8307575;28;20276;-64
2024/01/31 13:17:56;;;;;;;1.13;1.00;;;7.70;99.20;;;;;;8302912;28;20662;-64
2024/01/31 13:21:56;;;;;;;1.80;1.40;;;7.70;99.50;;;;;;8303619;28;20222;-65
2024/01/31 13:25:57;;;;;;;1.80;1.37;;;7.60;99.90;;;;;;8309038;28;20197;-64
2024/01/31 13:29:58;;;;;;;1.73;1.20;;;7.50;99.90;;;;;;8307486;28;20225;-66
2024/01/31 13:33:59;;;;;;;2.13;1.23;;;7.50;99.90;;;;;;8307213;28;20214;-64
2024/01/31 13:38:00;;;;;;;1.90;1.10;;;7.30;99.90;;;;;;8306327;28;20270;-63
2024/01/31 13:42:02;;;;;;;1.67;1.10;;;7.20;99.90;;;;;;8302686;28;20190;-63
2024/01/31 13:46:03;;;;;;;1.47;1.23;;;7.20;99.90;;;;;;8307375;28;20256;-63
2024/01/31 13:50:04;;;;;;;1.93;1.40;;;7.20;99.90;;;;;;8306722;28;20431;-64
2024/01/31 13:54:05;;;;;;;1.37;1.07;;;7.30;99.90;;;;;;8303810;28;20221;-63
2024/01/31 13:58:06;;;;;;;2.33;1.20;;;7.30;99.90;;;;;;8307277;28;20275;-64
2024/01/31 14:02:06;;;;;;;1.23;0.97;;;7.30;99.90;;;;;;8308860;28;20221;-63
2024/01/31 14:06:07;;;;;;;1.93;1.33;;;7.30;99.90;;;;;;8310704;28;20190;-66
2024/01/31 14:10:08;;;;;;;1.97;1.30;;;7.20;99.90;;;;;;8313454;28;20202;-65
2024/01/31 14:14:09;;;;;;;2.20;1.33;;;7.20;99.90;;;;;;8304676;28;20495;-64
2024/01/31 14:18:10;;;;;;;1.17;1.00;;;7.10;99.90;;;;;;8302563;28;20591;-64
2024/01/31 14:22:10;;;;;;;2.80;1.20;;;7.20;99.90;;;;;;8305323;28;20190;-64
2024/01/31 14:26:12;;;;;;;2.27;1.30;;;7.10;99.90;;;;;;8309030;28;20209;-65
2024/01/31 14:30:12;;;;;;;1.67;1.30;;;7.10;99.90;;;;;;8305861;28;20248;-64
2024/01/31 14:34:13;;;;;;;2.17;1.27;;;7.10;99.90;;;;;;8304575;28;20577;-65
2024/01/31 14:38:14;;;;;;;1.90;1.33;;;7.00;99.90;;;;;;8305542;28;20189;-64
2024/01/31 14:42:15;;;;;;;1.77;1.20;;;6.90;99.90;;;;;;8307953;28;20213;-65
2024/01/31 14:46:15;;;;;;;1.97;1.50;;;6.80;99.90;;;;;;8302239;28;20190;-63
2024/01/31 14:50:16;;;;;;;2.80;1.80;;;6.70;99.90;;;;;;8304886;28;20182;-64
2024/01/31 14:54:17;;;;;;;2.23;1.20;;;6.60;99.90;;;;;;8304730;28;20234;-64
2024/01/31 14:58:18;;;;;;;1.57;1.27;;;6.60;99.90;;;;;;8319622;28;20202;-64
2024/01/31 15:02:18;;;;;;;1.80;1.60;;;6.50;99.90;;;;;;8313653;28;20248;-64
2024/01/31 15:06:20;;;;;;;3.47;2.33;;;6.40;99.90;;;;;;8304600;28;20193;-64
2024/01/31 15:10:21;;;;;;;2.23;1.90;;;6.40;99.90;;;;;;8300507;28;20248;-64
2024/01/31 15:14:22;;;;;;;4.53;2.70;;;6.30;99.90;;;;;;8296056;28;20206;-64
2024/01/31 15:18:22;;;;;;;2.73;2.40;;;6.30;99.90;;;;;;8304386;28;20231;-64
2024/01/31 15:22:26;;;;;;;3.03;2.37;;;6.30;99.90;;;;;;8302400;28;20213;-63
2024/01/31 15:26:27;;;;;;;4.10;2.70;;;6.20;99.90;;;;;;8309187;28;20255;-65
2024/01/31 15:30:28;;;;;;;2.23;1.90;;;6.10;99.90;;;;;;8321794;28;20186;-65
2024/01/31 15:34:28;;;;;;;2.87;2.33;;;6.10;1.00;;;;;;8309999;28;20293;-65
2024/01/31 15:38:29;;;;;;;2.47;2.27;;;6.00;1.00;;;;;;8307204;28;20182;-65
2024/01/31 15:42:30;;;;;;;3.23;2.30;;;6.00;1.00;;;;;;8307649;28;20183;-66
2024/01/31 15:46:37;;;;;;;3.33;2.30;;;5.90;1.00;;;;;;8308843;28;20190;-65
2024/01/31 15:50:37;;;;;;;3.00;2.40;;;5.90;1.00;;;;;;8312545;28;20178;-65
2024/01/31 15:54:38;;;;;;;2.53;2.33;;;5.90;1.00;;;;;;8315291;28;20210;-65
2024/01/31 15:58:39;;;;;;;3.27;2.20;;;5.80;1.00;;;;;;8310601;28;20212;-66
2024/01/31 16:02:40;;;;;;;2.33;2.07;;;5.80;1.00;;;;;;8306858;28;20229;-65
2024/01/31 16:06:57;;;;;;;2.07;1.93;;;5.80;1.00;;;;;;8308808;28;20261;-65
2024/01/31 16:10:58;;;;;;;2.33;2.07;;;5.70;1.00;;;;;;8309199;28;20315;-63
2024/01/31 16:14:59;;;;;;;2.80;2.17;;;5.70;99.90;;;;;;8305491;28;20202;-61
2024/01/31 16:18:59;;;;;;;2.57;2.33;;;5.70;99.90;;;;;;8295801;28;20214;-61
2024/01/31 16:23:00;;;;;;;2.10;1.90;;;5.70;99.90;;;;;;8301462;28;20182;-61
2024/01/31 16:27:01;;;;;;;2.57;2.13;;;5.60;99.90;;;;;;8304857;28;20438;-62
2024/01/31 16:31:03;;;;;;;2.23;2.07;;;5.60;99.90;;;;;;8301631;28;20190;-63
2024/01/31 16:35:04;;;;;;;2.77;2.10;;;5.60;99.90;;;;;;8305068;28;20203;-62
2024/01/31 16:39:05;;;;;;;2.50;1.97;;;5.60;99.90;;;;;;8307496;28;20186;-62
2024/01/31 16:43:05;;;;;;;2.40;1.60;;;5.50;99.90;;;;;;8308796;28;20182;-62
2024/01/31 16:47:06;;;;;;;3.20;1.73;;;5.50;99.90;;;;;;8313815;28;20190;-62
2024/01/31 16:51:07;;;;;;;2.43;1.87;;;5.40;99.90;;;;;;8305388;28;20188;-62
2024/01/31 16:55:09;;;;;;;3.40;2.27;;;5.30;99.90;;;;;;8310527;28;20207;-62
2024/01/31 16:59:10;;;;;;;2.87;2.50;;;5.30;99.90;;;;;;8304169;28;20203;-62
2024/01/31 17:03:11;;;;;;;2.47;2.27;;;5.20;99.90;;;;;;8306328;28;20182;-62
2024/01/31 17:07:12;;;;;;;3.50;3.10;;;5.20;99.90;;;;;;8304441;28;20540;-62
2024/01/31 17:11:20;;;;;;;3.00;2.50;;;5.20;99.90;;;;;;8310584;28;20225;-62
2024/01/31 17:15:21;;;;;;;3.53;2.80;;;5.20;99.90;;;;;;8305021;28;20211;-62
2024/01/31 17:19:22;;;;;;;3.27;2.90;;;5.20;99.90;;;;;;8310145;28;20186;-61
2024/01/31 17:23:23;;;;;;;4.37;2.90;;;5.20;99.90;;;;;;8306332;28;20191;-62
2024/01/31 17:27:24;;;;;;;3.80;3.40;;;5.20;99.90;;;;;;8322650;28;20217;-62
2024/01/31 17:31:25;;;;;;;4.37;3.70;;;5.10;99.90;;;;;;8307963;28;20537;-61
2024/01/31 17:35:26;;;;;;;5.10;3.93;;;5.10;99.90;;;;;;8310938;28;20217;-63
2024/01/31 17:39:26;;;;;;;6.43;4.40;;;5.20;99.90;;;;;;8308212;28;20183;-62
2024/01/31 17:43:27;;;;;;;4.87;4.10;;;5.20;99.90;;;;;;8311501;28;20279;-62
2024/01/31 17:47:28;;;;;;;6.00;4.20;;;5.20;99.90;;;;;;8309416;28;20182;-62
2024/01/31 17:51:29;;;;;;;5.70;4.53;;;5.20;99.90;;;;;;8307632;28;20277;-62
2024/01/31 17:55:30;;;;;;;4.50;3.80;;;5.20;99.90;;;;;;8302567;28;20207;-62
2024/01/31 17:59:31;;;;;;;5.27;3.57;;;5.10;99.90;;;;;;8309613;28;20495;-62
2024/01/31 18:03:31;;;;;;;4.30;3.83;;;5.00;99.90;;;;;;8307651;28;20278;-60
2024/01/31 18:07:32;;;;;;;4.60;3.97;;;4.90;99.90;;;;;;8304882;28;20243;-61
2024/01/31 18:11:33;;;;;;;4.93;3.60;;;4.90;99.90;;;;;;8304183;28;20632;-61
2024/01/31 18:15:34;;;;;;;4.30;3.63;;;4.90;99.90;;;;;;8310291;28;20207;-62
2024/01/31 18:19:37;;;;;;;4.50;3.63;;;4.80;99.90;;;;;;8305715;28;20190;-62
2024/01/31 18:23:38;;;;;;;5.67;3.73;;;4.80;99.90;;;;;;8305689;28;20205;-62
2024/01/31 18:27:41;;;;;;;4.10;3.70;;;4.80;99.90;;;;;;8305137;28;20183;-62
2024/01/31 18:31:42;;;;;;;6.17;3.60;;;4.80;99.90;;;;;;8305300;28;20215;-63
2024/01/31 18:35:43;;;;;;;5.03;4.30;;;4.70;99.90;;;;;;8305916;28;20211;-62
2024/01/31 18:39:44;;;;;;;5.37;4.30;;;4.70;99.90;;;;;;8309643;28;20186;-62
2024/01/31 18:43:46;;;;;;;7.07;4.13;;;4.70;99.90;;;;;;8303838;28;20225;-62
2024/01/31 18:47:47;;;;;;;5.23;4.63;;;4.70;99.90;;;;;;8304064;28;20530;-62
2024/01/31 18:51:48;;;;;;;6.13;4.77;;;4.70;99.90;;;;;;8304716;28;20234;-62
2024/01/31 18:55:49;;;;;;;8.00;5.43;;;4.80;99.90;;;;;;8301569;28;20219;-62
2024/01/31 18:59:51;;;;;;;6.73;6.03;;;4.80;99.90;;;;;;8304113;28;20516;-62
2024/01/31 19:03:52;;;;;;;7.90;5.90;;;4.70;99.90;;;;;;8303988;28;20324;-62
2024/01/31 19:07:53;;;;;;;9.90;7.50;;;4.70;99.90;;;;;;8303737;28;20192;-62
2024/01/31 19:11:53;;;;;;;12.50;8.60;;;4.70;99.90;;;;;;8297101;28;20192;-62
2024/01/31 19:15:54;;;;;;;10.90;8.37;;;4.60;99.90;;;;;;8300261;28;20250;-61
2024/01/31 19:19:55;;;;;;;12.13;8.63;;;4.60;99.90;;;;;;8303184;28;20184;-62
2024/01/31 19:23:56;;;;;;;12.37;9.07;;;4.60;99.90;;;;;;8303907;28;20218;-62
2024/01/31 19:27:56;;;;;;;12.57;8.37;;;4.60;99.90;;;;;;8295863;28;20182;-62
2024/01/31 19:31:57;;;;;;;12.03;8.40;;;4.60;99.90;;;;;;8306152;28;20188;-62
2024/01/31 19:35:58;;;;;;;11.50;8.40;;;4.60;99.90;;;;;;8304871;28;20214;-62
2024/01/31 19:40:00;;;;;;;13.53;10.03;;;4.60;99.90;;;;;;8332848;28;20190;-62
2024/01/31 19:44:02;;;;;;;15.17;9.80;;;4.50;99.90;;;;;;8305434;28;20517;-62
2024/01/31 19:48:04;;;;;;;14.30;9.40;;;4.50;99.90;;;;;;8301985;28;20386;-62
2024/01/31 19:52:05;;;;;;;12.63;9.60;;;4.40;99.90;;;;;;8307495;28;20187;-61
2024/01/31 19:56:06;;;;;;;12.73;8.80;;;4.20;99.90;;;;;;8301787;28;20206;-63
2024/01/31 20:00:11;;;;;;;14.13;9.33;;;3.90;99.90;;;;;;8304665;28;20194;-62
2024/01/31 20:04:12;;;;;;;13.13;8.27;;;3.70;99.90;;;;;;8298286;28;20192;-62
2024/01/31 20:08:13;;;;;;;11.50;8.13;;;3.50;99.90;;;;;;8305061;28;20186;-63
2024/01/31 20:12:14;;;;;;;11.53;7.70;;;3.20;99.90;;;;;;8303989;28;20191;-62
2024/01/31 20:16:16;;;;;;;10.87;7.70;;;3.00;99.90;;;;;;8304936;28;20202;-62
2024/01/31 20:20:18;;;;;;;14.17;9.30;;;2.80;99.90;;;;;;8309490;28;20179;-60
2024/01/31 20:24:19;;;;;;;14.23;8.37;;;2.70;1.00;;;;;;8313449;28;20190;-63
2024/01/31 20:28:20;;;;;;;13.33;8.77;;;2.60;1.00;;;;;;8311854;28;20719;-63
2024/01/31 20:32:21;;;;;;;14.83;8.97;;;2.50;1.00;;;;;;8311329;28;20398;-62
2024/01/31 20:36:22;;;;;;;14.23;9.40;;;2.30;1.00;;;;;;8307349;28;20206;-62
2024/01/31 20:40:23;;;;;;;15.47;10.17;;;2.10;88.20;;;;;;8311512;28;20190;-62
2024/01/31 20:44:24;;;;;;;15.37;9.97;;;2.00;99.90;;;;;;8307812;28;20182;-61
2024/01/31 20:48:24;;;;;;;15.87;10.47;;;1.90;99.90;;;;;;8304458;28;20241;-62
2024/01/31 20:52:25;;;;;;;17.90;9.70;;;1.80;99.90;;;;;;8307321;28;20185;-62
2024/01/31 20:56:26;;;;;;;15.27;10.33;;;1.60;1.00;;;;;;8299351;28;20218;-63
2024/01/31 21:00:27;;;;;;;13.63;10.07;;;1.50;1.00;;;;;;8311000;28;20203;-62
2024/01/31 21:04:28;;;;;;;16.60;10.40;;;1.30;1.00;;;;;;8312442;28;20185;-61
2024/01/31 21:08:29;;;;;;;18.07;11.73;;;1.20;72.20;;;;;;8307264;28;20187;-62
2024/01/31 21:12:29;;;;;;;18.50;12.00;;;1.10;1.00;;;;;;8305083;28;20183;-61
2024/01/31 21:16:30;;;;;;;20.27;12.17;;;1.00;1.00;;;;;;8307129;28;20488;-61
2024/01/31 21:20:31;;;;;;;21.90;13.30;;;0.90;99.90;;;;;;8308665;28;20183;-60
2024/01/31 21:24:32;;;;;;;22.57;13.70;;;0.80;99.90;;;;;;8305161;28;20186;-62
2024/01/31 21:28:33;;;;;;;23.63;14.80;;;0.70;1.00;;;;;;8311540;28;20190;-61
2024/01/31 21:32:34;;;;;;;27.87;17.40;;;0.70;99.90;;;;;;8308599;28;20202;-63
2024/01/31 21:36:35;;;;;;;33.03;19.67;;;0.80;99.90;;;;;;8309574;28;20210;-63
2024/01/31 21:40:36;;;;;;;31.13;18.20;;;1.00;99.90;;;;;;8309544;28;20171;-63
2024/01/31 21:44:38;;;;;;;28.97;17.83;;;1.10;99.90;;;;;;8306451;28;20190;-63
2024/01/31 21:48:38;;;;;;;29.87;17.23;;;1.20;1.00;;;;;;8302144;28;20178;-62
2024/01/31 21:52:42;;;;;;;30.60;19.53;;;1.20;99.90;;;;;;8306962;28;20198;-63
2024/01/31 21:56:42;;;;;;;29.80;19.03;;;1.20;99.90;;;;;;8309292;28;20565;-63
2024/01/31 22:00:43;;;;;;;28.83;17.17;;;1.20;1.00;;;;;;8303065;28;20206;-61
2024/01/31 22:04:45;;;;;;;35.50;20.00;;;1.20;99.90;;;;;;8309046;28;20194;-61
2024/01/31 22:08:47;;;;;;;33.27;19.27;;;1.20;1.00;;;;;;8306374;28;20215;-61
2024/01/31 22:12:48;;;;;;;28.93;18.47;;;1.30;17.30;;;;;;8306212;28;20198;-61
2024/01/31 22:16:49;;;;;;;34.00;20.50;;;1.30;70.90;;;;;;8305432;28;20210;-61
2024/01/31 22:20:49;;;;;;;31.00;18.63;;;1.30;1.00;;;;;;8307950;28;20676;-61
2024/01/31 22:24:50;;;;;;;31.13;18.40;;;1.30;99.90;;;;;;8304835;28;20189;-61
2024/01/31 22:28:51;;;;;;;35.87;21.90;;;1.30;1.00;;;;;;8309888;28;20187;-61
2024/01/31 22:32:52;;;;;;;36.43;22.40;;;1.30;1.00;;;;;;8304276;28;20252;-61
2024/01/31 22:36:53;;;;;;;33.87;20.50;;;1.30;99.90;;;;;;8306871;28;20214;-61
2024/01/31 22:40:55;;;;;;;30.23;20.20;;;1.20;99.90;;;;;;8304485;28;20209;-61
2024/01/31 22:44:56;;;;;;;34.47;20.10;;;1.30;1.00;;;;;;8308193;28;20217;-61
2024/01/31 22:48:57;;;;;;;30.63;19.27;;;1.30;99.90;;;;;;8303146;28;20190;-62
2024/01/31 22:52:57;;;;;;;35.27;20.10;;;1.30;99.90;;;;;;8306922;28;20175;-62
2024/01/31 22:56:58;;;;;;;33.50;20.87;;;1.30;99.90;;;;;;8306819;28;20225;-62
2024/01/31 23:01:00;;;;;;;31.53;19.67;;;1.30;54.00;;;;;;8302724;28;20195;-62
2024/01/31 23:05:01;;;;;;;35.10;20.17;;;1.20;44.60;;;;;;8304290;28;20195;-62
2024/01/31 23:09:01;;;;;;;31.60;20.43;;;1.20;1.00;;;;;;8305472;28;20240;-62
2024/01/31 23:13:02;;;;;;;35.03;19.77;;;1.10;1.00;;;;;;8305114;28;20190;-62
2024/01/31 23:17:03;;;;;;;32.97;19.00;;;1.10;99.90;;;;;;8301675;28;20212;-62
2024/01/31 23:21:05;;;;;;;33.77;18.93;;;1.10;99.90;;;;;;8301590;28;20196;-62
2024/01/31 23:25:06;;;;;;;28.00;17.30;;;1.10;1.00;;;;;;8304090;28;20269;-62
2024/01/31 23:29:07;;;;;;;33.13;18.33;;;1.20;99.90;;;;;;8301642;28;20286;-62
2024/01/31 23:33:08;;;;;;;32.23;18.30;;;1.20;1.00;;;;;;8301901;28;20194;-62
2024/01/31 23:37:08;;;;;;;32.17;19.67;;;1.30;58.90;;;;;;8302572;28;20222;-62
2024/01/31 23:41:09;;;;;;;31.03;18.10;;;1.30;98.80;;;;;;8303701;28;20206;-63
2024/01/31 23:45:10;;;;;;;29.73;18.20;;;1.30;70.80;;;;;;8300355;28;20221;-62
2024/01/31 23:49:11;;;;;;;31.67;18.23;;;1.40;99.90;;;;;;8305666;28;20182;-62
2024/01/31 23:53:11;;;;;;;29.97;18.90;;;1.40;99.90;;;;;;8300646;28;20194;-62
2024/01/31 23:57:14;;;;;;;31.23;19.97;;;1.40;99.90;;;;;;8306427;28;20240;-62
